»·PEaware :: N007GH L52-L88

N007GH :: L52-L88

FLIGHT INFORMATION

Flight Status: Arrived
Operator: Privately registered:
United States
More flights under this callsign
Pilot: Gary H. (21214)
Aircraft: PIPER PA-24 COMMANCHE
(PA24)
More flights by this aircraft type
Origin: L52 Oceano Co
United States
Destination: L88 New Cuyama
United States
More flights between these airports :: More routes between these airports
Route:
File this flight plan on PilotEdge
Remarks:
Altitude:
(Current/Filed)
7,500ft
Speed:
(Current/Filed)
150kts
Departed: 17-May-19 02:39 PM
Arrived: 17-May-19 03:07 PM
Distance/Time
Traveled:
47nm/0:28
Distance/Time
To Go:
Arrived

Flight Plot

Page will automatically refresh every two minutes.


Map Options




Map Legend


Flown Route
Filed Route
Departure Airport
Arrival Airport
Navaid (VOR, NDB)
Fix

Horizontal Profiles

Position Reports

Time Latitude Longitude Heading Altitude Ground
Speed
17-May-19 14:29 35.102212 -120.622594 213 17ft 0kts
17-May-19 14:30 35.101885 -120.622230 194 17ft 0kts
17-May-19 14:31 35.101130 -120.622496 120 17ft 5kts
17-May-19 14:32 35.099594 -120.619482 55 17ft 3kts
17-May-19 14:33 35.099629 -120.619453 29 17ft 0kts
17-May-19 14:34 35.099631 -120.619451 29 17ft 0kts
17-May-19 14:35 35.099634 -120.619449 29 17ft 0kts
17-May-19 14:36 35.099637 -120.619447 29 17ft 0kts
17-May-19 14:37 35.099640 -120.619445 29 17ft 0kts
17-May-19 14:38 35.100476 -120.620400 301 17ft 43kts
17-May-19 14:39 35.113049 -120.645911 287 1284ft 97kts
17-May-19 14:40 35.093997 -120.653911 126 2752ft 104kts
17-May-19 14:41 35.075833 -120.626373 139 4206ft 104kts
17-May-19 14:42 35.052895 -120.602582 138 5465ft 109kts
17-May-19 14:43 35.031198 -120.581052 141 6515ft 112kts
17-May-19 14:44 35.016428 -120.549841 82 7567ft 108kts
17-May-19 14:45 35.022124 -120.503907 80 7499ft 158kts
17-May-19 14:46 35.028543 -120.451129 83 7561ft 159kts
17-May-19 14:47 35.034941 -120.398698 81 7551ft 151kts
17-May-19 14:48 35.041514 -120.347363 81 7523ft 151kts
17-May-19 14:49 35.047558 -120.296276 81 7512ft 152kts
17-May-19 14:50 35.054034 -120.245241 81 7515ft 152kts
17-May-19 14:51 35.060170 -120.194207 81 7518ft 152kts
17-May-19 14:52 35.066509 -120.143266 81 7520ft 152kts
17-May-19 14:53 35.072782 -120.092194 81 7519ft 152kts
17-May-19 14:54 35.067068 -120.043087 117 7521ft 151kts
17-May-19 14:55 35.048505 -119.999035 117 7518ft 152kts
17-May-19 14:56 35.038320 -119.950544 92 7518ft 151kts
17-May-19 14:57 35.026884 -119.901019 107 7516ft 151kts
17-May-19 14:59 35.015236 -119.856433 105 7213ft 152kts
17-May-19 15:00 34.997038 -119.809404 134 6081ft 154kts
17-May-19 15:01 34.971235 -119.766562 117 4424ft 152kts
17-May-19 15:02 34.952570 -119.721767 118 2847ft 137kts
17-May-19 15:03 34.936610 -119.687495 125 2655ft 97kts
17-May-19 15:04 34.920345 -119.662688 129 2749ft 93kts
17-May-19 15:05 34.931168 -119.662911 298 2645ft 99kts
17-May-19 15:06 34.940289 -119.686286 298 2206ft 44kts
17-May-19 15:07 34.942860 -119.691158 25 2206ft 6kts
17-May-19 15:08 34.943717 -119.690986 107 2206ft 0kts
17-May-19 15:09 34.925412 -119.655513 319 2801ft 102kts
17-May-19 15:10 34.938145 -119.681243 290 2206ft 70kts
17-May-19 15:11 34.942373 -119.691158 328 2206ft 6kts
17-May-19 15:12 34.943772 -119.691606 82 2206ft 9kts
17-May-19 15:13 34.943717 -119.690986 107 2206ft 0kts
17-May-19 15:14 34.943717 -119.690986 107 2206ft 0kts
17-May-19 15:15 34.943717 -119.690986 107 2206ft 0kts
17-May-19 15:16 34.943717 -119.690986 107 2206ft 0kts
17-May-19 15:16 34.943717 -119.690986 107 2206ft 0kts
17-May-19 15:18 34.943717 -119.690986 107 2206ft 0kts
17-May-19 15:19 34.943717 -119.690986 107 2206ft 0kts
17-May-19 15:19 34.943717 -119.690986 107 2206ft 0kts
17-May-19 15:20 34.943717 -119.690986 107 2206ft 0kts

Navigation Log

Ident Type
Flight plan parsing failed, navigation log unavailable